sensor_id;sensor_type;location;lat;lon;timestamp;temperature;humidity
30949;HTU21D;17637;51.984;21.208;2022-07-18T00:01:45;13.44;10.39
30949;HTU21D;17637;51.984;21.208;2022-07-18T00:06:51;13.51;10.49
30949;HTU21D;17637;51.984;21.208;2022-07-18T00:11:54;13.41;10.42
30949;HTU21D;17637;51.984;21.208;2022-07-18T00:16:57;13.25;11.34
30949;HTU21D;17637;51.984;21.208;2022-07-18T00:22:03;13.09;11.95
30949;HTU21D;17637;51.984;21.208;2022-07-18T00:27:07;13.04;11.73
30949;HTU21D;17637;51.984;21.208;2022-07-18T00:32:10;13.00;11.50
30949;HTU21D;17637;51.984;21.208;2022-07-18T00:37:15;12.99;11.62
30949;HTU21D;17637;51.984;21.208;2022-07-18T00:42:19;12.91;11.68
30949;HTU21D;17637;51.984;21.208;2022-07-18T00:47:23;12.90;11.72
30949;HTU21D;17637;51.984;21.208;2022-07-18T00:52:28;12.73;11.75
30949;HTU21D;17637;51.984;21.208;2022-07-18T00:57:31;12.76;11.88
30949;HTU21D;17637;51.984;21.208;2022-07-18T01:02:34;12.64;11.44
30949;HTU21D;17637;51.984;21.208;2022-07-18T01:07:39;12.72;11.56
30949;HTU21D;17637;51.984;21.208;2022-07-18T01:12:42;12.73;11.76
30949;HTU21D;17637;51.984;21.208;2022-07-18T01:17:46;12.63;11.33
30949;HTU21D;17637;51.984;21.208;2022-07-18T01:22:50;12.58;11.14
30949;HTU21D;17637;51.984;21.208;2022-07-18T01:27:54;12.55;11.11
30949;HTU21D;17637;51.984;21.208;2022-07-18T01:33:00;12.52;10.68
30949;HTU21D;17637;51.984;21.208;2022-07-18T01:38:06;12.53;10.55
30949;HTU21D;17637;51.984;21.208;2022-07-18T01:43:09;12.51;10.14
30949;HTU21D;17637;51.984;21.208;2022-07-18T01:48:12;12.66;9.88
30949;HTU21D;17637;51.984;21.208;2022-07-18T01:53:17;12.66;11.11
30949;HTU21D;17637;51.984;21.208;2022-07-18T01:58:21;12.65;10.74
30949;HTU21D;17637;51.984;21.208;2022-07-18T02:03:24;12.69;10.75
30949;HTU21D;17637;51.984;21.208;2022-07-18T02:08:29;12.60;10.35
30949;HTU21D;17637;51.984;21.208;2022-07-18T02:13:33;12.52;10.07
30949;HTU21D;17637;51.984;21.208;2022-07-18T02:18:37;12.43;9.86
30949;HTU21D;17637;51.984;21.208;2022-07-18T02:23:46;12.32;9.57
30949;HTU21D;17637;51.984;21.208;2022-07-18T02:28:49;12.19;8.57
30949;HTU21D;17637;51.984;21.208;2022-07-18T02:33:52;12.15;8.14
30949;HTU21D;17637;51.984;21.208;2022-07-18T02:38:57;12.16;7.78
30949;HTU21D;17637;51.984;21.208;2022-07-18T02:44:00;12.11;6.76
30949;HTU21D;17637;51.984;21.208;2022-07-18T02:49:03;12.05;6.55
30949;HTU21D;17637;51.984;21.208;2022-07-18T02:54:08;12.06;6.20
30949;HTU21D;17637;51.984;21.208;2022-07-18T02:59:18;12.04;4.94
30949;HTU21D;17637;51.984;21.208;2022-07-18T03:04:22;12.07;4.51
30949;HTU21D;17637;51.984;21.208;2022-07-18T03:09:27;12.08;4.41
30949;HTU21D;17637;51.984;21.208;2022-07-18T03:14:30;12.12;4.31
30949;HTU21D;17637;51.984;21.208;2022-07-18T03:19:33;12.13;3.77
30949;HTU21D;17637;51.984;21.208;2022-07-18T03:24:38;12.17;3.56
30949;HTU21D;17637;51.984;21.208;2022-07-18T03:29:41;12.35;3.49
30949;HTU21D;17637;51.984;21.208;2022-07-18T03:34:45;12.74;5.11
30949;HTU21D;17637;51.984;21.208;2022-07-18T03:39:50;13.00;5.63
30949;HTU21D;17637;51.984;21.208;2022-07-18T03:44:53;13.03;6.57
30949;HTU21D;17637;51.984;21.208;2022-07-18T03:49:58;13.11;7.34
30949;HTU21D;17637;51.984;21.208;2022-07-18T03:55:04;13.21;7.45
30949;HTU21D;17637;51.984;21.208;2022-07-18T04:00:08;13.24;7.30
30949;HTU21D;17637;51.984;21.208;2022-07-18T04:05:12;13.36;7.68
30949;HTU21D;17637;51.984;21.208;2022-07-18T04:10:18;13.58;7.90
30949;HTU21D;17637;51.984;21.208;2022-07-18T04:15:22;13.75;8.51
30949;HTU21D;17637;51.984;21.208;2022-07-18T04:20:26;13.96;9.01
30949;HTU21D;17637;51.984;21.208;2022-07-18T04:25:38;14.24;8.89
30949;HTU21D;17637;51.984;21.208;2022-07-18T04:30:43;14.22;9.24
30949;HTU21D;17637;51.984;21.208;2022-07-18T04:35:47;14.40;9.22
30949;HTU21D;17637;51.984;21.208;2022-07-18T04:40:52;14.44;9.34
30949;HTU21D;17637;51.984;21.208;2022-07-18T04:45:55;14.71;9.04
30949;HTU21D;17637;51.984;21.208;2022-07-18T04:50:58;14.81;8.72
30949;HTU21D;17637;51.984;21.208;2022-07-18T04:56:04;15.06;8.11
30949;HTU21D;17637;51.984;21.208;2022-07-18T05:01:07;15.27;4.93
30949;HTU21D;17637;51.984;21.208;2022-07-18T05:06:10;15.74;1.17
30949;HTU21D;17637;51.984;21.208;2022-07-18T05:11:15;16.19;0.26
30949;HTU21D;17637;51.984;21.208;2022-07-18T05:16:18;16.43;-2.95
30949;HTU21D;17637;51.984;21.208;2022-07-18T05:21:21;16.74;-3.80
30949;HTU21D;17637;51.984;21.208;2022-07-18T05:26:29;16.61;-5.73
30949;HTU21D;17637;51.984;21.208;2022-07-18T05:31:37;16.90;118.23
30949;HTU21D;17637;51.984;21.208;2022-07-18T05:36:40;17.21;115.25
30949;HTU21D;17637;51.984;21.208;2022-07-18T05:41:45;17.37;115.91
30949;HTU21D;17637;51.984;21.208;2022-07-18T05:46:48;17.34;114.00
30949;HTU21D;17637;51.984;21.208;2022-07-18T05:51:52;17.51;111.97
30949;HTU21D;17637;51.984;21.208;2022-07-18T05:56:57;17.76;115.24
30949;HTU21D;17637;51.984;21.208;2022-07-18T06:02:00;17.62;112.90
30949;HTU21D;17637;51.984;21.208;2022-07-18T06:07:04;17.79;111.10
30949;HTU21D;17637;51.984;21.208;2022-07-18T06:12:08;18.18;109.08
30949;HTU21D;17637;51.984;21.208;2022-07-18T06:17:11;18.27;107.99
30949;HTU21D;17637;51.984;21.208;2022-07-18T06:22:14;18.15;108.89
30949;HTU21D;17637;51.984;21.208;2022-07-18T06:27:19;18.33;104.79
30949;HTU21D;17637;51.984;21.208;2022-07-18T06:32:23;18.56;106.37
30949;HTU21D;17637;51.984;21.208;2022-07-18T06:37:26;18.58;102.94
30949;HTU21D;17637;51.984;21.208;2022-07-18T06:42:30;18.63;103.37
30949;HTU21D;17637;51.984;21.208;2022-07-18T06:47:33;19.06;101.85
30949;HTU21D;17637;51.984;21.208;2022-07-18T06:52:38;18.69;103.51
30949;HTU21D;17637;51.984;21.208;2022-07-18T06:57:44;19.21;103.38
30949;HTU21D;17637;51.984;21.208;2022-07-18T07:02:48;19.38;100.52
30949;HTU21D;17637;51.984;21.208;2022-07-18T07:07:52;19.97;103.97
30949;HTU21D;17637;51.984;21.208;2022-07-18T07:12:57;19.84;101.35
30949;HTU21D;17637;51.984;21.208;2022-07-18T07:18:00;19.84;101.55
30949;HTU21D;17637;51.984;21.208;2022-07-18T07:23:04;19.53;103.02
30949;HTU21D;17637;51.984;21.208;2022-07-18T07:28:11;19.84;100.09
30949;HTU21D;17637;51.984;21.208;2022-07-18T07:33:15;19.91;104.19
30949;HTU21D;17637;51.984;21.208;2022-07-18T07:38:18;20.16;101.01
30949;HTU21D;17637;51.984;21.208;2022-07-18T07:43:23;20.41;97.05
30949;HTU21D;17637;51.984;21.208;2022-07-18T07:48:27;20.69;95.05
30949;HTU21D;17637;51.984;21.208;2022-07-18T07:53:31;21.13;100.70
30949;HTU21D;17637;51.984;21.208;2022-07-18T07:58:36;20.53;96.21
30949;HTU21D;17637;51.984;21.208;2022-07-18T08:03:39;20.33;93.07
30949;HTU21D;17637;51.984;21.208;2022-07-18T08:08:42;20.50;93.25
30949;HTU21D;17637;51.984;21.208;2022-07-18T08:13:47;20.61;96.38
30949;HTU21D;17637;51.984;21.208;2022-07-18T08:18:51;20.83;96.33
30949;HTU21D;17637;51.984;21.208;2022-07-18T08:23:54;21.25;92.76
30949;HTU21D;17637;51.984;21.208;2022-07-18T08:29:11;20.77;93.74
30949;HTU21D;17637;51.984;21.208;2022-07-18T08:34:15;20.90;94.82
30949;HTU21D;17637;51.984;21.208;2022-07-18T08:39:18;21.30;94.01
30949;HTU21D;17637;51.984;21.208;2022-07-18T08:44:23;21.81;90.21
30949;HTU21D;17637;51.984;21.208;2022-07-18T08:49:26;21.23;90.79
30949;HTU21D;17637;51.984;21.208;2022-07-18T08:54:30;20.88;88.61
30949;HTU21D;17637;51.984;21.208;2022-07-18T08:59:35;21.39;91.92
30949;HTU21D;17637;51.984;21.208;2022-07-18T09:04:40;21.54;91.75
30949;HTU21D;17637;51.984;21.208;2022-07-18T09:09:51;21.81;90.99
30949;HTU21D;17637;51.984;21.208;2022-07-18T09:14:58;21.53;90.03
30949;HTU21D;17637;51.984;21.208;2022-07-18T09:20:08;21.66;91.56
30949;HTU21D;17637;51.984;21.208;2022-07-18T09:25:16;21.34;90.86
30949;HTU21D;17637;51.984;21.208;2022-07-18T09:30:23;21.93;93.35
30949;HTU21D;17637;51.984;21.208;2022-07-18T09:35:28;21.60;89.12
30949;HTU21D;17637;51.984;21.208;2022-07-18T09:40:33;22.14;92.01
30949;HTU21D;17637;51.984;21.208;2022-07-18T09:45:40;22.37;93.02
30949;HTU21D;17637;51.984;21.208;2022-07-18T09:50:50;21.87;89.68
30949;HTU21D;17637;51.984;21.208;2022-07-18T09:55:55;21.78;91.57
30949;HTU21D;17637;51.984;21.208;2022-07-18T10:01:02;21.36;91.99
30949;HTU21D;17637;51.984;21.208;2022-07-18T10:06:05;21.58;91.46
30949;HTU21D;17637;51.984;21.208;2022-07-18T10:11:09;22.08;92.43
30949;HTU21D;17637;51.984;21.208;2022-07-18T10:16:13;22.29;92.06
30949;HTU21D;17637;51.984;21.208;2022-07-18T10:21:19;22.75;87.43
30949;HTU21D;17637;51.984;21.208;2022-07-18T10:26:24;22.16;91.82
30949;HTU21D;17637;51.984;21.208;2022-07-18T10:31:30;22.76;88.41
30949;HTU21D;17637;51.984;21.208;2022-07-18T10:36:35;22.54;87.48
30949;HTU21D;17637;51.984;21.208;2022-07-18T10:47:17;22.42;86.07
30949;HTU21D;17637;51.984;21.208;2022-07-18T10:52:56;23.06;86.95
30949;HTU21D;17637;51.984;21.208;2022-07-18T10:58:20;22.68;83.52
30949;HTU21D;17637;51.984;21.208;2022-07-18T11:03:36;23.07;87.62
30949;HTU21D;17637;51.984;21.208;2022-07-18T11:08:39;23.50;83.76
30949;HTU21D;17637;51.984;21.208;2022-07-18T11:13:45;22.90;82.17
30949;HTU21D;17637;51.984;21.208;2022-07-18T11:19:21;23.38;87.28
30949;HTU21D;17637;51.984;21.208;2022-07-18T11:24:26;23.24;80.65
30949;HTU21D;17637;51.984;21.208;2022-07-18T11:29:30;23.68;85.61
30949;HTU21D;17637;51.984;21.208;2022-07-18T11:34:50;23.92;81.08
30949;HTU21D;17637;51.984;21.208;2022-07-18T11:39:54;23.81;81.88
30949;HTU21D;17637;51.984;21.208;2022-07-18T11:45:07;23.85;81.73
30949;HTU21D;17637;51.984;21.208;2022-07-18T11:50:12;24.39;81.43
30949;HTU21D;17637;51.984;21.208;2022-07-18T11:55:15;24.16;84.85
30949;HTU21D;17637;51.984;21.208;2022-07-18T12:00:19;24.06;84.07
30949;HTU21D;17637;51.984;21.208;2022-07-18T12:05:31;23.95;83.12
30949;HTU21D;17637;51.984;21.208;2022-07-18T12:10:35;23.61;84.31
30949;HTU21D;17637;51.984;21.208;2022-07-18T12:15:39;23.58;83.41
30949;HTU21D;17637;51.984;21.208;2022-07-18T12:20:44;23.32;81.43
30949;HTU21D;17637;51.984;21.208;2022-07-18T12:25:47;24.14;81.07
30949;HTU21D;17637;51.984;21.208;2022-07-18T12:30:52;24.50;84.04
30949;HTU21D;17637;51.984;21.208;2022-07-18T12:36:04;24.99;83.83
30949;HTU21D;17637;51.984;21.208;2022-07-18T12:41:07;24.88;80.33
30949;HTU21D;17637;51.984;21.208;2022-07-18T12:46:10;24.83;77.76
30949;HTU21D;17637;51.984;21.208;2022-07-18T12:51:15;23.97;77.53
30949;HTU21D;17637;51.984;21.208;2022-07-18T12:56:18;23.91;79.49
30949;HTU21D;17637;51.984;21.208;2022-07-18T13:01:22;23.83;78.64
30949;HTU21D;17637;51.984;21.208;2022-07-18T13:06:27;23.46;78.85
30949;HTU21D;17637;51.984;21.208;2022-07-18T13:11:30;23.73;80.56
30949;HTU21D;17637;51.984;21.208;2022-07-18T13:16:34;23.60;81.81
30949;HTU21D;17637;51.984;21.208;2022-07-18T13:21:39;23.45;81.07
30949;HTU21D;17637;51.984;21.208;2022-07-18T13:26:43;23.95;81.14
30949;HTU21D;17637;51.984;21.208;2022-07-18T13:31:46;23.79;79.66
30949;HTU21D;17637;51.984;21.208;2022-07-18T13:36:53;23.26;81.39
30949;HTU21D;17637;51.984;21.208;2022-07-18T13:41:56;23.38;80.65
30949;HTU21D;17637;51.984;21.208;2022-07-18T13:46:59;23.62;82.49
30949;HTU21D;17637;51.984;21.208;2022-07-18T13:52:05;23.99;82.29
30949;HTU21D;17637;51.984;21.208;2022-07-18T13:57:13;23.86;79.97
30949;HTU21D;17637;51.984;21.208;2022-07-18T14:02:16;24.43;79.74
30949;HTU21D;17637;51.984;21.208;2022-07-18T14:07:21;24.59;78.15
30949;HTU21D;17637;51.984;21.208;2022-07-18T14:12:24;24.89;77.93
30949;HTU21D;17637;51.984;21.208;2022-07-18T14:17:27;24.63;73.90
30949;HTU21D;17637;51.984;21.208;2022-07-18T14:22:34;24.21;76.53
30949;HTU21D;17637;51.984;21.208;2022-07-18T14:27:38;24.69;75.67
30949;HTU21D;17637;51.984;21.208;2022-07-18T14:32:41;24.98;76.01
30949;HTU21D;17637;51.984;21.208;2022-07-18T14:37:46;24.77;74.55
30949;HTU21D;17637;51.984;21.208;2022-07-18T14:42:49;24.45;71.64
30949;HTU21D;17637;51.984;21.208;2022-07-18T14:47:54;24.46;71.68
30949;HTU21D;17637;51.984;21.208;2022-07-18T14:52:59;24.38;70.08
30949;HTU21D;17637;51.984;21.208;2022-07-18T14:58:03;24.34;70.00
30949;HTU21D;17637;51.984;21.208;2022-07-18T15:03:06;24.56;70.25
30949;HTU21D;17637;51.984;21.208;2022-07-18T15:08:30;24.50;71.43
30949;HTU21D;17637;51.984;21.208;2022-07-18T15:13:34;24.27;69.23
30949;HTU21D;17637;51.984;21.208;2022-07-18T15:18:37;24.40;68.97
30949;HTU21D;17637;51.984;21.208;2022-07-18T15:23:42;24.14;68.53
30949;HTU21D;17637;51.984;21.208;2022-07-18T15:28:46;24.10;69.01
30949;HTU21D;17637;51.984;21.208;2022-07-18T15:33:49;24.21;68.64
30949;HTU21D;17637;51.984;21.208;2022-07-18T15:38:54;24.48;71.68
30949;HTU21D;17637;51.984;21.208;2022-07-18T15:43:57;24.32;69.81
30949;HTU21D;17637;51.984;21.208;2022-07-18T15:49:00;24.66;71.51
30949;HTU21D;17637;51.984;21.208;2022-07-18T15:54:04;24.85;71.23
30949;HTU21D;17637;51.984;21.208;2022-07-18T15:59:12;24.75;71.89
30949;HTU21D;17637;51.984;21.208;2022-07-18T16:04:15;24.79;70.53
30949;HTU21D;17637;51.984;21.208;2022-07-18T16:09:20;24.90;70.42
30949;HTU21D;17637;51.984;21.208;2022-07-18T16:14:23;24.87;70.12
30949;HTU21D;17637;51.984;21.208;2022-07-18T16:19:27;24.82;68.54
30949;HTU21D;17637;51.984;21.208;2022-07-18T16:24:32;24.59;70.07
30949;HTU21D;17637;51.984;21.208;2022-07-18T16:29:35;24.71;68.30
30949;HTU21D;17637;51.984;21.208;2022-07-18T16:34:38;25.50;68.20
30949;HTU21D;17637;51.984;21.208;2022-07-18T16:39:43;26.31;66.66
30949;HTU21D;17637;51.984;21.208;2022-07-18T16:44:47;26.66;64.65
30949;HTU21D;17637;51.984;21.208;2022-07-18T16:49:50;26.67;63.51
30949;HTU21D;17637;51.984;21.208;2022-07-18T16:54:56;26.99;64.02
30949;HTU21D;17637;51.984;21.208;2022-07-18T16:59:59;26.80;63.18
30949;HTU21D;17637;51.984;21.208;2022-07-18T17:05:12;27.41;62.48
30949;HTU21D;17637;51.984;21.208;2022-07-18T17:10:18;27.39;62.08
30949;HTU21D;17637;51.984;21.208;2022-07-18T17:15:22;26.05;64.39
30949;HTU21D;17637;51.984;21.208;2022-07-18T17:20:27;25.87;65.78
30949;HTU21D;17637;51.984;21.208;2022-07-18T17:25:32;25.40;67.95
30949;HTU21D;17637;51.984;21.208;2022-07-18T17:30:40;24.99;71.16
30949;HTU21D;17637;51.984;21.208;2022-07-18T17:35:44;24.53;71.32
30949;HTU21D;17637;51.984;21.208;2022-07-18T17:40:49;24.09;74.16
30949;HTU21D;17637;51.984;21.208;2022-07-18T17:45:54;23.90;74.28
30949;HTU21D;17637;51.984;21.208;2022-07-18T17:50:58;23.55;77.60
30949;HTU21D;17637;51.984;21.208;2022-07-18T17:56:04;23.21;81.01
30949;HTU21D;17637;51.984;21.208;2022-07-18T18:01:08;22.82;86.25
30949;HTU21D;17637;51.984;21.208;2022-07-18T18:06:17;22.58;88.58
30949;HTU21D;17637;51.984;21.208;2022-07-18T18:11:22;22.22;90.69
30949;HTU21D;17637;51.984;21.208;2022-07-18T18:16:25;21.88;92.63
30949;HTU21D;17637;51.984;21.208;2022-07-18T18:21:28;21.70;93.98
30949;HTU21D;17637;51.984;21.208;2022-07-18T18:26:33;21.53;94.98
30949;HTU21D;17637;51.984;21.208;2022-07-18T18:31:36;21.49;94.30
30949;HTU21D;17637;51.984;21.208;2022-07-18T18:36:39;21.46;98.59
30949;HTU21D;17637;51.984;21.208;2022-07-18T18:42:02;21.38;103.33
30949;HTU21D;17637;51.984;21.208;2022-07-18T18:47:11;21.28;103.90
30949;HTU21D;17637;51.984;21.208;2022-07-18T18:52:20;21.16;103.41
30949;HTU21D;17637;51.984;21.208;2022-07-18T18:57:25;21.03;105.85
30949;HTU21D;17637;51.984;21.208;2022-07-18T19:02:28;20.84;106.88
30949;HTU21D;17637;51.984;21.208;2022-07-18T19:07:32;20.77;106.28
30949;HTU21D;17637;51.984;21.208;2022-07-18T19:12:37;20.59;107.47
30949;HTU21D;17637;51.984;21.208;2022-07-18T19:17:40;20.48;106.36
30949;HTU21D;17637;51.984;21.208;2022-07-18T19:22:44;20.35;106.72
30949;HTU21D;17637;51.984;21.208;2022-07-18T19:27:49;20.24;110.17
30949;HTU21D;17637;51.984;21.208;2022-07-18T19:32:52;20.11;113.32
30949;HTU21D;17637;51.984;21.208;2022-07-18T19:37:57;19.88;116.27
30949;HTU21D;17637;51.984;21.208;2022-07-18T19:43:01;19.85;114.00
30949;HTU21D;17637;51.984;21.208;2022-07-18T19:48:05;19.82;113.59
30949;HTU21D;17637;51.984;21.208;2022-07-18T19:53:09;19.83;114.53
30949;HTU21D;17637;51.984;21.208;2022-07-18T19:58:13;19.75;116.04
30949;HTU21D;17637;51.984;21.208;2022-07-18T20:03:16;19.65;-2.57
30949;HTU21D;17637;51.984;21.208;2022-07-18T20:08:20;19.58;118.67
30949;HTU21D;17637;51.984;21.208;2022-07-18T20:13:24;19.59;118.78
30949;HTU21D;17637;51.984;21.208;2022-07-18T20:18:31;19.56;-5.40
30949;HTU21D;17637;51.984;21.208;2022-07-18T20:23:34;19.44;-0.09
30949;HTU21D;17637;51.984;21.208;2022-07-18T20:28:38;19.45;0.67
30949;HTU21D;17637;51.984;21.208;2022-07-18T20:33:41;19.48;-2.37
30949;HTU21D;17637;51.984;21.208;2022-07-18T20:38:45;19.48;-2.80
30949;HTU21D;17637;51.984;21.208;2022-07-18T20:43:50;19.47;-1.54
30949;HTU21D;17637;51.984;21.208;2022-07-18T20:48:53;19.50;-0.71
30949;HTU21D;17637;51.984;21.208;2022-07-18T20:53:56;19.50;-1.46
30949;HTU21D;17637;51.984;21.208;2022-07-18T20:59:01;19.48;1.61
30949;HTU21D;17637;51.984;21.208;2022-07-18T21:04:04;19.45;4.08
30949;HTU21D;17637;51.984;21.208;2022-07-18T21:09:08;19.42;1.13
30949;HTU21D;17637;51.984;21.208;2022-07-18T21:14:13;19.32;4.25
30949;HTU21D;17637;51.984;21.208;2022-07-18T21:19:35;19.26;4.36
30949;HTU21D;17637;51.984;21.208;2022-07-18T21:24:38;19.29;4.69
30949;HTU21D;17637;51.984;21.208;2022-07-18T21:29:43;19.28;4.93
30949;HTU21D;17637;51.984;21.208;2022-07-18T21:34:47;19.25;2.98
30949;HTU21D;17637;51.984;21.208;2022-07-18T21:39:50;19.30;2.87
30949;HTU21D;17637;51.984;21.208;2022-07-18T21:44:55;19.29;2.69
30949;HTU21D;17637;51.984;21.208;2022-07-18T21:49:58;19.27;2.73
30949;HTU21D;17637;51.984;21.208;2022-07-18T21:55:02;19.28;2.61
30949;HTU21D;17637;51.984;21.208;2022-07-18T22:00:10;19.27;2.36
30949;HTU21D;17637;51.984;21.208;2022-07-18T22:05:13;19.25;2.96
30949;HTU21D;17637;51.984;21.208;2022-07-18T22:10:16;19.25;3.06
30949;HTU21D;17637;51.984;21.208;2022-07-18T22:15:21;19.30;2.02
30949;HTU21D;17637;51.984;21.208;2022-07-18T22:20:24;19.30;0.65
30949;HTU21D;17637;51.984;21.208;2022-07-18T22:25:27;19.20;3.56
30949;HTU21D;17637;51.984;21.208;2022-07-18T22:30:33;19.17;0.71
30949;HTU21D;17637;51.984;21.208;2022-07-18T22:35:39;19.17;1.66
30949;HTU21D;17637;51.984;21.208;2022-07-18T22:40:42;19.18;1.72
30949;HTU21D;17637;51.984;21.208;2022-07-18T22:45:46;19.18;1.22
30949;HTU21D;17637;51.984;21.208;2022-07-18T22:50:49;19.17;1.10
30949;HTU21D;17637;51.984;21.208;2022-07-18T22:55:52;19.22;0.89
30949;HTU21D;17637;51.984;21.208;2022-07-18T23:00:57;19.20;-1.04
30949;HTU21D;17637;51.984;21.208;2022-07-18T23:06:01;19.26;-3.10
30949;HTU21D;17637;51.984;21.208;2022-07-18T23:11:05;19.23;-0.08
30949;HTU21D;17637;51.984;21.208;2022-07-18T23:16:10;19.17;2.13
30949;HTU21D;17637;51.984;21.208;2022-07-18T23:21:13;19.18;0.32
30949;HTU21D;17637;51.984;21.208;2022-07-18T23:26:16;19.28;-0.73
30949;HTU21D;17637;51.984;21.208;2022-07-18T23:31:20;19.28;0.01
30949;HTU21D;17637;51.984;21.208;2022-07-18T23:36:25;19.31;-0.34
30949;HTU21D;17637;51.984;21.208;2022-07-18T23:41:28;19.26;4.39
30949;HTU21D;17637;51.984;21.208;2022-07-18T23:46:33;19.22;1.80
30949;HTU21D;17637;51.984;21.208;2022-07-18T23:51:36;19.23;2.87
30949;HTU21D;17637;51.984;21.208;2022-07-18T23:56:39;19.24;2.26
